sensor_id;sensor_type;location;lat;lon;timestamp;temperature;humidity
11532;DHT22;5822;51.000;5.874;2024-02-26T00:00:04;10.60;99.90
11532;DHT22;5822;51.000;5.874;2024-02-26T00:02:35;10.70;99.90
11532;DHT22;5822;51.000;5.874;2024-02-26T00:05:05;10.60;99.90
11532;DHT22;5822;51.000;5.874;2024-02-26T00:07:30;10.60;99.90
11532;DHT22;5822;51.000;5.874;2024-02-26T00:09:56;10.60;99.90
11532;DHT22;5822;51.000;5.874;2024-02-26T00:12:21;10.60;99.90
11532;DHT22;5822;51.000;5.874;2024-02-26T00:14:47;10.50;99.90
11532;DHT22;5822;51.000;5.874;2024-02-26T00:17:15;10.50;99.90
11532;DHT22;5822;51.000;5.874;2024-02-26T00:19:41;10.50;99.90
11532;DHT22;5822;51.000;5.874;2024-02-26T00:22:07;10.50;99.90
11532;DHT22;5822;51.000;5.874;2024-02-26T00:24:32;10.50;99.90
11532;DHT22;5822;51.000;5.874;2024-02-26T00:26:59;10.40;99.90
11532;DHT22;5822;51.000;5.874;2024-02-26T00:29:25;10.40;99.90
11532;DHT22;5822;51.000;5.874;2024-02-26T00:31:51;10.40;99.90
11532;DHT22;5822;51.000;5.874;2024-02-26T00:34:17;10.40;99.90
11532;DHT22;5822;51.000;5.874;2024-02-26T00:36:42;10.40;99.90
11532;DHT22;5822;51.000;5.874;2024-02-26T00:39:08;10.40;99.90
11532;DHT22;5822;51.000;5.874;2024-02-26T00:41:39;10.40;99.90
11532;DHT22;5822;51.000;5.874;2024-02-26T00:44:05;10.30;99.90
11532;DHT22;5822;51.000;5.874;2024-02-26T00:46:31;10.30;99.90
11532;DHT22;5822;51.000;5.874;2024-02-26T00:48:56;10.30;99.90
11532;DHT22;5822;51.000;5.874;2024-02-26T00:51:22;10.30;99.90
11532;DHT22;5822;51.000;5.874;2024-02-26T00:53:47;10.30;99.90
11532;DHT22;5822;51.000;5.874;2024-02-26T00:56:13;10.30;99.90
11532;DHT22;5822;51.000;5.874;2024-02-26T00:58:39;10.30;99.90
11532;DHT22;5822;51.000;5.874;2024-02-26T01:01:04;10.30;99.90
11532;DHT22;5822;51.000;5.874;2024-02-26T01:03:30;10.20;99.90
11532;DHT22;5822;51.000;5.874;2024-02-26T01:05:55;10.20;99.90
11532;DHT22;5822;51.000;5.874;2024-02-26T01:08:21;10.30;99.90
11532;DHT22;5822;51.000;5.874;2024-02-26T01:10:47;10.30;99.90
11532;DHT22;5822;51.000;5.874;2024-02-26T01:13:12;10.30;99.90
11532;DHT22;5822;51.000;5.874;2024-02-26T01:15:38;10.20;99.90
11532;DHT22;5822;51.000;5.874;2024-02-26T01:18:04;10.30;99.90
11532;DHT22;5822;51.000;5.874;2024-02-26T01:20:29;10.20;99.90
11532;DHT22;5822;51.000;5.874;2024-02-26T01:22:55;10.20;99.90
11532;DHT22;5822;51.000;5.874;2024-02-26T01:25:21;10.20;99.90
11532;DHT22;5822;51.000;5.874;2024-02-26T01:27:46;10.20;99.90
11532;DHT22;5822;51.000;5.874;2024-02-26T01:30:12;10.20;99.90
11532;DHT22;5822;51.000;5.874;2024-02-26T01:32:39;10.20;99.90
11532;DHT22;5822;51.000;5.874;2024-02-26T01:35:05;10.20;99.90
11532;DHT22;5822;51.000;5.874;2024-02-26T01:37:35;10.20;99.90
11532;DHT22;5822;51.000;5.874;2024-02-26T01:40:01;10.10;99.90
11532;DHT22;5822;51.000;5.874;2024-02-26T01:42:29;10.20;99.90
11532;DHT22;5822;51.000;5.874;2024-02-26T01:44:56;10.10;99.90
11532;DHT22;5822;51.000;5.874;2024-02-26T01:47:22;10.10;99.90
11532;DHT22;5822;51.000;5.874;2024-02-26T01:49:48;10.10;99.90
11532;DHT22;5822;51.000;5.874;2024-02-26T01:52:14;10.20;99.90
11532;DHT22;5822;51.000;5.874;2024-02-26T01:54:40;10.10;99.90
11532;DHT22;5822;51.000;5.874;2024-02-26T01:57:08;10.10;99.90
11532;DHT22;5822;51.000;5.874;2024-02-26T01:59:34;10.10;99.90
11532;DHT22;5822;51.000;5.874;2024-02-26T02:02:01;10.10;99.90
11532;DHT22;5822;51.000;5.874;2024-02-26T02:04:29;10.10;99.90
11532;DHT22;5822;51.000;5.874;2024-02-26T02:06:55;10.10;99.90
11532;DHT22;5822;51.000;5.874;2024-02-26T02:09:22;10.10;99.90
11532;DHT22;5822;51.000;5.874;2024-02-26T02:11:48;10.10;99.90
11532;DHT22;5822;51.000;5.874;2024-02-26T02:14:14;10.00;99.90
11532;DHT22;5822;51.000;5.874;2024-02-26T02:16:40;10.00;99.90
11532;DHT22;5822;51.000;5.874;2024-02-26T02:19:05;10.00;99.90
11532;DHT22;5822;51.000;5.874;2024-02-26T02:21:31;10.00;99.90
11532;DHT22;5822;51.000;5.874;2024-02-26T02:23:57;10.00;99.90
11532;DHT22;5822;51.000;5.874;2024-02-26T02:26:22;10.00;99.90
11532;DHT22;5822;51.000;5.874;2024-02-26T02:28:48;10.00;99.90
11532;DHT22;5822;51.000;5.874;2024-02-26T02:31:15;10.00;99.90
11532;DHT22;5822;51.000;5.874;2024-02-26T02:33:41;10.00;99.90
11532;DHT22;5822;51.000;5.874;2024-02-26T02:36:07;10.00;99.90
11532;DHT22;5822;51.000;5.874;2024-02-26T02:38:36;10.00;99.90
11532;DHT22;5822;51.000;5.874;2024-02-26T02:41:02;10.10;99.90
11532;DHT22;5822;51.000;5.874;2024-02-26T02:43:27;10.00;99.90
11532;DHT22;5822;51.000;5.874;2024-02-26T02:45:53;10.00;99.90
11532;DHT22;5822;51.000;5.874;2024-02-26T02:48:19;10.00;99.90
11532;DHT22;5822;51.000;5.874;2024-02-26T02:50:45;10.10;99.90
11532;DHT22;5822;51.000;5.874;2024-02-26T02:53:11;10.00;99.90
11532;DHT22;5822;51.000;5.874;2024-02-26T02:55:36;10.00;99.90
11532;DHT22;5822;51.000;5.874;2024-02-26T02:58:02;10.00;99.90
11532;DHT22;5822;51.000;5.874;2024-02-26T03:00:28;10.00;99.90
11532;DHT22;5822;51.000;5.874;2024-02-26T03:02:53;10.00;99.90
11532;DHT22;5822;51.000;5.874;2024-02-26T03:05:19;9.90;99.90
11532;DHT22;5822;51.000;5.874;2024-02-26T03:07:45;9.90;99.90
11532;DHT22;5822;51.000;5.874;2024-02-26T03:10:10;9.90;99.90
11532;DHT22;5822;51.000;5.874;2024-02-26T03:12:36;9.90;99.90
11532;DHT22;5822;51.000;5.874;2024-02-26T03:15:02;9.90;99.90
11532;DHT22;5822;51.000;5.874;2024-02-26T03:17:30;9.90;99.90
11532;DHT22;5822;51.000;5.874;2024-02-26T03:19:56;9.90;99.90
11532;DHT22;5822;51.000;5.874;2024-02-26T03:22:22;9.90;99.90
11532;DHT22;5822;51.000;5.874;2024-02-26T03:24:48;9.90;99.90
11532;DHT22;5822;51.000;5.874;2024-02-26T03:27:13;9.90;99.90
11532;DHT22;5822;51.000;5.874;2024-02-26T03:29:40;9.90;99.90
11532;DHT22;5822;51.000;5.874;2024-02-26T03:32:06;10.00;99.90
11532;DHT22;5822;51.000;5.874;2024-02-26T03:34:32;10.00;99.90
11532;DHT22;5822;51.000;5.874;2024-02-26T03:37:00;9.90;99.90
11532;DHT22;5822;51.000;5.874;2024-02-26T03:39:26;9.90;99.90
11532;DHT22;5822;51.000;5.874;2024-02-26T03:41:51;9.90;99.90
11532;DHT22;5822;51.000;5.874;2024-02-26T03:44:17;9.90;99.90
11532;DHT22;5822;51.000;5.874;2024-02-26T03:46:43;9.90;99.90
11532;DHT22;5822;51.000;5.874;2024-02-26T03:49:09;9.90;99.90
11532;DHT22;5822;51.000;5.874;2024-02-26T03:51:34;10.00;99.90
11532;DHT22;5822;51.000;5.874;2024-02-26T03:54:01;10.00;99.90
11532;DHT22;5822;51.000;5.874;2024-02-26T03:56:27;10.00;99.90
11532;DHT22;5822;51.000;5.874;2024-02-26T03:58:53;9.90;99.90
11532;DHT22;5822;51.000;5.874;2024-02-26T04:01:18;10.00;99.90
11532;DHT22;5822;51.000;5.874;2024-02-26T04:03:44;10.00;99.90
11532;DHT22;5822;51.000;5.874;2024-02-26T04:06:10;9.90;99.90
11532;DHT22;5822;51.000;5.874;2024-02-26T04:08:37;9.90;99.90
11532;DHT22;5822;51.000;5.874;2024-02-26T04:11:03;9.90;99.90
11532;DHT22;5822;51.000;5.874;2024-02-26T04:13:33;9.90;99.90
11532;DHT22;5822;51.000;5.874;2024-02-26T04:15:59;9.90;99.90
11532;DHT22;5822;51.000;5.874;2024-02-26T04:18:27;9.90;99.90
11532;DHT22;5822;51.000;5.874;2024-02-26T04:20:52;9.90;99.90
11532;DHT22;5822;51.000;5.874;2024-02-26T04:23:18;9.90;99.90
11532;DHT22;5822;51.000;5.874;2024-02-26T04:25:44;10.00;99.90
11532;DHT22;5822;51.000;5.874;2024-02-26T04:28:10;9.90;99.90
11532;DHT22;5822;51.000;5.874;2024-02-26T04:30:36;10.00;99.90
11532;DHT22;5822;51.000;5.874;2024-02-26T04:33:02;9.90;99.90
11532;DHT22;5822;51.000;5.874;2024-02-26T04:35:27;9.90;99.90
11532;DHT22;5822;51.000;5.874;2024-02-26T04:37:53;10.00;99.90
11532;DHT22;5822;51.000;5.874;2024-02-26T04:40:19;10.00;99.90
11532;DHT22;5822;51.000;5.874;2024-02-26T04:42:44;9.90;99.90
11532;DHT22;5822;51.000;5.874;2024-02-26T04:45:10;10.00;99.90
11532;DHT22;5822;51.000;5.874;2024-02-26T04:47:36;9.90;99.90
11532;DHT22;5822;51.000;5.874;2024-02-26T04:50:01;9.90;99.90
11532;DHT22;5822;51.000;5.874;2024-02-26T04:52:27;9.90;99.90
11532;DHT22;5822;51.000;5.874;2024-02-26T04:54:53;9.90;99.90
11532;DHT22;5822;51.000;5.874;2024-02-26T04:57:20;10.00;99.90
11532;DHT22;5822;51.000;5.874;2024-02-26T04:59:46;9.90;99.90
11532;DHT22;5822;51.000;5.874;2024-02-26T05:02:12;9.90;99.90
11532;DHT22;5822;51.000;5.874;2024-02-26T05:04:38;9.90;99.90
11532;DHT22;5822;51.000;5.874;2024-02-26T05:07:04;10.00;99.90
11532;DHT22;5822;51.000;5.874;2024-02-26T05:09:30;9.90;99.90
11532;DHT22;5822;51.000;5.874;2024-02-26T05:11:55;9.90;99.90
11532;DHT22;5822;51.000;5.874;2024-02-26T05:14:21;9.90;99.90
11532;DHT22;5822;51.000;5.874;2024-02-26T05:16:47;9.90;99.90
11532;DHT22;5822;51.000;5.874;2024-02-26T05:19:13;9.90;99.90
11532;DHT22;5822;51.000;5.874;2024-02-26T05:21:38;9.90;99.90
11532;DHT22;5822;51.000;5.874;2024-02-26T05:24:06;9.90;99.90
11532;DHT22;5822;51.000;5.874;2024-02-26T05:26:32;9.90;99.90
11532;DHT22;5822;51.000;5.874;2024-02-26T05:28:57;9.80;99.90
11532;DHT22;5822;51.000;5.874;2024-02-26T05:31:25;9.80;99.90
11532;DHT22;5822;51.000;5.874;2024-02-26T05:33:51;9.80;99.90
11532;DHT22;5822;51.000;5.874;2024-02-26T05:36:23;9.80;99.90
11532;DHT22;5822;51.000;5.874;2024-02-26T05:38:49;9.70;99.90
11532;DHT22;5822;51.000;5.874;2024-02-26T05:41:18;9.80;99.90
11532;DHT22;5822;51.000;5.874;2024-02-26T05:43:49;9.70;99.90
11532;DHT22;5822;51.000;5.874;2024-02-26T05:46:17;9.70;99.90
11532;DHT22;5822;51.000;5.874;2024-02-26T05:48:44;9.70;99.90
11532;DHT22;5822;51.000;5.874;2024-02-26T05:51:09;9.60;99.90
11532;DHT22;5822;51.000;5.874;2024-02-26T05:53:35;9.60;99.90
11532;DHT22;5822;51.000;5.874;2024-02-26T05:56:01;9.70;99.90
11532;DHT22;5822;51.000;5.874;2024-02-26T05:58:26;9.60;99.90
11532;DHT22;5822;51.000;5.874;2024-02-26T06:00:52;9.60;99.90
11532;DHT22;5822;51.000;5.874;2024-02-26T06:03:18;9.60;99.90
11532;DHT22;5822;51.000;5.874;2024-02-26T06:05:43;9.60;99.90
11532;DHT22;5822;51.000;5.874;2024-02-26T06:08:09;9.50;99.90
11532;DHT22;5822;51.000;5.874;2024-02-26T06:10:34;9.50;99.90
11532;DHT22;5822;51.000;5.874;2024-02-26T06:13:00;9.60;99.90
11532;DHT22;5822;51.000;5.874;2024-02-26T06:15:26;9.50;99.90
11532;DHT22;5822;51.000;5.874;2024-02-26T06:17:51;9.50;99.90
11532;DHT22;5822;51.000;5.874;2024-02-26T06:20:17;9.50;99.90
11532;DHT22;5822;51.000;5.874;2024-02-26T06:22:42;9.50;99.90
11532;DHT22;5822;51.000;5.874;2024-02-26T06:25:08;9.50;99.90
11532;DHT22;5822;51.000;5.874;2024-02-26T06:27:35;9.50;99.90
11532;DHT22;5822;51.000;5.874;2024-02-26T06:30:01;9.60;99.90
11532;DHT22;5822;51.000;5.874;2024-02-26T06:32:27;9.50;99.90
11532;DHT22;5822;51.000;5.874;2024-02-26T06:34:54;9.50;99.90
11532;DHT22;5822;51.000;5.874;2024-02-26T06:37:20;9.50;99.90
11532;DHT22;5822;51.000;5.874;2024-02-26T06:39:46;9.50;99.90
11532;DHT22;5822;51.000;5.874;2024-02-26T06:42:11;9.50;99.90
11532;DHT22;5822;51.000;5.874;2024-02-26T06:44:37;9.40;99.90
11532;DHT22;5822;51.000;5.874;2024-02-26T06:47:03;9.50;99.90
11532;DHT22;5822;51.000;5.874;2024-02-26T06:49:29;9.50;99.90
11532;DHT22;5822;51.000;5.874;2024-02-26T06:51:54;9.50;99.90
11532;DHT22;5822;51.000;5.874;2024-02-26T06:54:20;9.60;99.90
11532;DHT22;5822;51.000;5.874;2024-02-26T06:56:46;9.50;99.90
11532;DHT22;5822;51.000;5.874;2024-02-26T06:59:11;9.50;99.90
11532;DHT22;5822;51.000;5.874;2024-02-26T07:01:39;9.50;99.90
11532;DHT22;5822;51.000;5.874;2024-02-26T07:04:04;9.50;99.90
11532;DHT22;5822;51.000;5.874;2024-02-26T07:06:32;9.60;99.90
11532;DHT22;5822;51.000;5.874;2024-02-26T07:08:57;9.50;99.90
11532;DHT22;5822;51.000;5.874;2024-02-26T07:11:23;9.50;99.90
11532;DHT22;5822;51.000;5.874;2024-02-26T07:13:49;9.40;99.90
11532;DHT22;5822;51.000;5.874;2024-02-26T07:16:15;9.40;99.90
11532;DHT22;5822;51.000;5.874;2024-02-26T07:18:41;9.40;99.90
11532;DHT22;5822;51.000;5.874;2024-02-26T07:21:08;9.40;99.90
11532;DHT22;5822;51.000;5.874;2024-02-26T07:23:34;9.40;99.90
11532;DHT22;5822;51.000;5.874;2024-02-26T07:26:00;9.50;99.90
11532;DHT22;5822;51.000;5.874;2024-02-26T07:28:25;9.50;99.90
11532;DHT22;5822;51.000;5.874;2024-02-26T07:30:51;9.60;99.90
11532;DHT22;5822;51.000;5.874;2024-02-26T07:33:17;9.60;99.90
11532;DHT22;5822;51.000;5.874;2024-02-26T07:35:42;9.50;99.90
11532;DHT22;5822;51.000;5.874;2024-02-26T07:38:08;9.60;99.90
11532;DHT22;5822;51.000;5.874;2024-02-26T07:40:34;9.50;99.90
11532;DHT22;5822;51.000;5.874;2024-02-26T07:42:59;9.50;99.90
11532;DHT22;5822;51.000;5.874;2024-02-26T07:45:25;9.60;99.90
11532;DHT22;5822;51.000;5.874;2024-02-26T07:47:51;9.50;99.90
11532;DHT22;5822;51.000;5.874;2024-02-26T07:50:17;9.60;99.90
11532;DHT22;5822;51.000;5.874;2024-02-26T07:52:43;9.50;99.90
11532;DHT22;5822;51.000;5.874;2024-02-26T07:55:10;9.50;99.90
11532;DHT22;5822;51.000;5.874;2024-02-26T07:57:36;9.60;99.90
11532;DHT22;5822;51.000;5.874;2024-02-26T08:00:03;9.50;99.90
11532;DHT22;5822;51.000;5.874;2024-02-26T08:02:28;9.60;99.90
11532;DHT22;5822;51.000;5.874;2024-02-26T08:04:54;9.50;99.90
11532;DHT22;5822;51.000;5.874;2024-02-26T08:07:20;9.50;99.90
11532;DHT22;5822;51.000;5.874;2024-02-26T08:09:47;9.50;99.90
11532;DHT22;5822;51.000;5.874;2024-02-26T08:12:12;9.50;99.90
11532;DHT22;5822;51.000;5.874;2024-02-26T08:14:38;9.60;99.90
11532;DHT22;5822;51.000;5.874;2024-02-26T08:17:04;9.60;99.90
11532;DHT22;5822;51.000;5.874;2024-02-26T08:19:29;9.50;99.90
11532;DHT22;5822;51.000;5.874;2024-02-26T08:21:55;9.60;99.90
11532;DHT22;5822;51.000;5.874;2024-02-26T08:24:21;9.60;99.90
11532;DHT22;5822;51.000;5.874;2024-02-26T08:26:46;9.60;99.90
11532;DHT22;5822;51.000;5.874;2024-02-26T08:29:12;9.60;99.90
11532;DHT22;5822;51.000;5.874;2024-02-26T08:31:37;9.60;99.90
11532;DHT22;5822;51.000;5.874;2024-02-26T08:34:04;9.60;99.90
11532;DHT22;5822;51.000;5.874;2024-02-26T08:36:32;9.60;99.90
11532;DHT22;5822;51.000;5.874;2024-02-26T08:38:58;9.60;99.90
11532;DHT22;5822;51.000;5.874;2024-02-26T08:41:24;9.60;99.90
11532;DHT22;5822;51.000;5.874;2024-02-26T08:43:49;9.50;99.90
11532;DHT22;5822;51.000;5.874;2024-02-26T08:46:15;9.50;99.90
11532;DHT22;5822;51.000;5.874;2024-02-26T08:48:40;9.50;99.90
11532;DHT22;5822;51.000;5.874;2024-02-26T08:51:07;9.60;99.90
11532;DHT22;5822;51.000;5.874;2024-02-26T08:53:33;9.50;99.90
11532;DHT22;5822;51.000;5.874;2024-02-26T08:55:58;9.60;99.90
11532;DHT22;5822;51.000;5.874;2024-02-26T08:58:24;9.60;99.90
11532;DHT22;5822;51.000;5.874;2024-02-26T09:00:50;9.50;99.90
11532;DHT22;5822;51.000;5.874;2024-02-26T09:03:16;9.50;99.90
11532;DHT22;5822;51.000;5.874;2024-02-26T09:05:42;9.50;99.90
11532;DHT22;5822;51.000;5.874;2024-02-26T09:08:07;9.50;99.90
11532;DHT22;5822;51.000;5.874;2024-02-26T09:10:33;9.50;99.90
11532;DHT22;5822;51.000;5.874;2024-02-26T09:12:58;9.50;99.90
11532;DHT22;5822;51.000;5.874;2024-02-26T09:15:24;9.60;99.90
11532;DHT22;5822;51.000;5.874;2024-02-26T09:17:50;9.60;99.90
11532;DHT22;5822;51.000;5.874;2024-02-26T09:20:16;9.60;99.90
11532;DHT22;5822;51.000;5.874;2024-02-26T09:22:46;9.60;99.90
11532;DHT22;5822;51.000;5.874;2024-02-26T09:25:12;9.60;99.90
11532;DHT22;5822;51.000;5.874;2024-02-26T09:27:38;9.60;99.90
11532;DHT22;5822;51.000;5.874;2024-02-26T09:30:04;9.60;99.90
11532;DHT22;5822;51.000;5.874;2024-02-26T09:32:30;9.60;99.90
11532;DHT22;5822;51.000;5.874;2024-02-26T09:34:56;9.60;99.90
11532;DHT22;5822;51.000;5.874;2024-02-26T09:37:21;9.60;99.90
11532;DHT22;5822;51.000;5.874;2024-02-26T09:39:47;9.60;99.90
11532;DHT22;5822;51.000;5.874;2024-02-26T09:42:13;9.60;99.90
11532;DHT22;5822;51.000;5.874;2024-02-26T09:44:40;9.60;99.90
11532;DHT22;5822;51.000;5.874;2024-02-26T09:47:10;9.60;99.90
11532;DHT22;5822;51.000;5.874;2024-02-26T09:49:37;9.60;99.90
11532;DHT22;5822;51.000;5.874;2024-02-26T09:52:04;9.70;99.90
11532;DHT22;5822;51.000;5.874;2024-02-26T09:54:31;9.70;99.90
11532;DHT22;5822;51.000;5.874;2024-02-26T09:57:00;9.80;99.90
11532;DHT22;5822;51.000;5.874;2024-02-26T09:59:29;9.70;99.90
11532;DHT22;5822;51.000;5.874;2024-02-26T10:02:01;9.70;99.90
11532;DHT22;5822;51.000;5.874;2024-02-26T10:04:27;9.70;99.90
11532;DHT22;5822;51.000;5.874;2024-02-26T10:06:53;9.70;99.90
11532;DHT22;5822;51.000;5.874;2024-02-26T10:09:20;9.70;99.90
11532;DHT22;5822;51.000;5.874;2024-02-26T10:11:47;9.70;99.90
11532;DHT22;5822;51.000;5.874;2024-02-26T10:14:14;9.80;99.90
11532;DHT22;5822;51.000;5.874;2024-02-26T10:16:41;9.80;99.90
11532;DHT22;5822;51.000;5.874;2024-02-26T10:19:07;9.80;99.90
11532;DHT22;5822;51.000;5.874;2024-02-26T10:21:33;9.80;99.90
11532;DHT22;5822;51.000;5.874;2024-02-26T10:23:58;9.80;99.90
11532;DHT22;5822;51.000;5.874;2024-02-26T10:26:24;9.80;99.90
11532;DHT22;5822;51.000;5.874;2024-02-26T10:28:50;9.80;99.90
11532;DHT22;5822;51.000;5.874;2024-02-26T10:31:16;9.80;99.90
11532;DHT22;5822;51.000;5.874;2024-02-26T10:33:43;9.90;99.90
11532;DHT22;5822;51.000;5.874;2024-02-26T10:36:09;9.90;99.90
11532;DHT22;5822;51.000;5.874;2024-02-26T10:38:36;9.90;99.90
11532;DHT22;5822;51.000;5.874;2024-02-26T10:41:03;10.00;99.90
11532;DHT22;5822;51.000;5.874;2024-02-26T10:43:29;10.00;99.90
11532;DHT22;5822;51.000;5.874;2024-02-26T10:45:55;10.00;99.90
11532;DHT22;5822;51.000;5.874;2024-02-26T10:48:21;10.00;99.90
11532;DHT22;5822;51.000;5.874;2024-02-26T10:50:47;10.00;99.90
11532;DHT22;5822;51.000;5.874;2024-02-26T10:53:17;10.00;99.90
11532;DHT22;5822;51.000;5.874;2024-02-26T10:55:57;10.00;99.90
11532;DHT22;5822;51.000;5.874;2024-02-26T10:58:24;10.00;99.90
11532;DHT22;5822;51.000;5.874;2024-02-26T11:00:51;10.00;99.90
11532;DHT22;5822;51.000;5.874;2024-02-26T11:03:18;10.10;99.90
11532;DHT22;5822;51.000;5.874;2024-02-26T11:05:49;10.00;99.90
11532;DHT22;5822;51.000;5.874;2024-02-26T11:08:19;10.10;99.90
11532;DHT22;5822;51.000;5.874;2024-02-26T11:10:47;10.00;99.90
11532;DHT22;5822;51.000;5.874;2024-02-26T11:13:15;10.10;99.90
11532;DHT22;5822;51.000;5.874;2024-02-26T11:15:43;10.00;99.90
11532;DHT22;5822;51.000;5.874;2024-02-26T11:18:10;10.00;99.90
11532;DHT22;5822;51.000;5.874;2024-02-26T11:20:38;10.10;99.90
11532;DHT22;5822;51.000;5.874;2024-02-26T11:23:07;10.10;99.90
11532;DHT22;5822;51.000;5.874;2024-02-26T11:25:32;10.00;99.90
11532;DHT22;5822;51.000;5.874;2024-02-26T11:28:02;10.10;99.90
11532;DHT22;5822;51.000;5.874;2024-02-26T11:30:32;10.00;99.90
11532;DHT22;5822;51.000;5.874;2024-02-26T11:32:59;10.10;99.90
11532;DHT22;5822;51.000;5.874;2024-02-26T11:35:25;10.00;99.90
11532;DHT22;5822;51.000;5.874;2024-02-26T11:37:55;10.10;99.90
11532;DHT22;5822;51.000;5.874;2024-02-26T11:40:24;10.10;99.90
11532;DHT22;5822;51.000;5.874;2024-02-26T11:42:54;10.10;99.90
11532;DHT22;5822;51.000;5.874;2024-02-26T11:48:24;10.10;99.90
11532;DHT22;5822;51.000;5.874;2024-02-26T11:50:54;10.10;99.90
11532;DHT22;5822;51.000;5.874;2024-02-26T11:53:32;10.10;99.90
11532;DHT22;5822;51.000;5.874;2024-02-26T11:58:41;10.10;99.90
11532;DHT22;5822;51.000;5.874;2024-02-26T12:04:16;10.10;99.90
11532;DHT22;5822;51.000;5.874;2024-02-26T12:07:00;10.20;99.90
11532;DHT22;5822;51.000;5.874;2024-02-26T12:09:38;10.20;99.90
11532;DHT22;5822;51.000;5.874;2024-02-26T12:12:06;10.10;99.90
11532;DHT22;5822;51.000;5.874;2024-02-26T12:14:50;10.10;99.90
11532;DHT22;5822;51.000;5.874;2024-02-26T12:17:20;10.20;99.90
11532;DHT22;5822;51.000;5.874;2024-02-26T12:19:46;10.20;99.90
11532;DHT22;5822;51.000;5.874;2024-02-26T12:22:15;10.20;99.90
11532;DHT22;5822;51.000;5.874;2024-02-26T12:24:42;10.30;99.90
11532;DHT22;5822;51.000;5.874;2024-02-26T12:27:07;10.30;99.90
11532;DHT22;5822;51.000;5.874;2024-02-26T12:29:33;10.30;99.90
11532;DHT22;5822;51.000;5.874;2024-02-26T12:31:58;10.30;99.90
11532;DHT22;5822;51.000;5.874;2024-02-26T12:34:25;10.30;99.90
11532;DHT22;5822;51.000;5.874;2024-02-26T12:36:52;10.20;99.90
11532;DHT22;5822;51.000;5.874;2024-02-26T12:39:19;10.20;99.90
11532;DHT22;5822;51.000;5.874;2024-02-26T12:41:46;10.20;99.90
11532;DHT22;5822;51.000;5.874;2024-02-26T12:44:16;10.10;99.90
11532;DHT22;5822;51.000;5.874;2024-02-26T12:46:41;10.10;99.90
11532;DHT22;5822;51.000;5.874;2024-02-26T12:49:08;10.20;99.90
11532;DHT22;5822;51.000;5.874;2024-02-26T12:51:34;10.10;99.90
11532;DHT22;5822;51.000;5.874;2024-02-26T12:54:00;10.10;99.90
11532;DHT22;5822;51.000;5.874;2024-02-26T12:56:27;10.10;99.90
11532;DHT22;5822;51.000;5.874;2024-02-26T12:58:54;10.10;99.90
11532;DHT22;5822;51.000;5.874;2024-02-26T13:01:23;10.10;99.90
11532;DHT22;5822;51.000;5.874;2024-02-26T13:03:51;10.10;99.90
11532;DHT22;5822;51.000;5.874;2024-02-26T13:06:17;10.10;99.90
11532;DHT22;5822;51.000;5.874;2024-02-26T13:08:45;10.00;99.90
11532;DHT22;5822;51.000;5.874;2024-02-26T13:11:10;10.10;99.90
11532;DHT22;5822;51.000;5.874;2024-02-26T13:13:36;10.00;99.90
11532;DHT22;5822;51.000;5.874;2024-02-26T13:16:03;10.00;99.90
11532;DHT22;5822;51.000;5.874;2024-02-26T13:18:30;10.00;99.90
11532;DHT22;5822;51.000;5.874;2024-02-26T13:21:17;10.00;99.90
11532;DHT22;5822;51.000;5.874;2024-02-26T13:23:43;10.10;99.90
11532;DHT22;5822;51.000;5.874;2024-02-26T13:26:13;10.10;99.90
11532;DHT22;5822;51.000;5.874;2024-02-26T13:28:40;10.10;99.90
11532;DHT22;5822;51.000;5.874;2024-02-26T13:31:06;10.00;99.90
11532;DHT22;5822;51.000;5.874;2024-02-26T13:33:33;10.00;99.90
11532;DHT22;5822;51.000;5.874;2024-02-26T13:36:00;10.10;99.90
11532;DHT22;5822;51.000;5.874;2024-02-26T13:38:26;10.00;99.90
11532;DHT22;5822;51.000;5.874;2024-02-26T13:40:53;10.10;99.90
11532;DHT22;5822;51.000;5.874;2024-02-26T13:43:19;10.10;99.90
11532;DHT22;5822;51.000;5.874;2024-02-26T13:45:46;10.10;99.90
11532;DHT22;5822;51.000;5.874;2024-02-26T13:48:12;10.00;99.90
11532;DHT22;5822;51.000;5.874;2024-02-26T13:50:39;10.00;99.90
11532;DHT22;5822;51.000;5.874;2024-02-26T13:53:04;10.00;99.90
11532;DHT22;5822;51.000;5.874;2024-02-26T13:55:31;10.00;99.90
11532;DHT22;5822;51.000;5.874;2024-02-26T13:57:58;10.00;99.90
11532;DHT22;5822;51.000;5.874;2024-02-26T14:00:24;10.00;99.90
11532;DHT22;5822;51.000;5.874;2024-02-26T14:02:52;10.00;99.90
11532;DHT22;5822;51.000;5.874;2024-02-26T14:05:18;10.00;99.90
11532;DHT22;5822;51.000;5.874;2024-02-26T14:07:44;10.00;99.90
11532;DHT22;5822;51.000;5.874;2024-02-26T14:10:12;10.00;99.90
11532;DHT22;5822;51.000;5.874;2024-02-26T14:12:38;10.00;99.90
11532;DHT22;5822;51.000;5.874;2024-02-26T14:15:07;10.00;99.90
11532;DHT22;5822;51.000;5.874;2024-02-26T14:17:33;9.90;99.90
11532;DHT22;5822;51.000;5.874;2024-02-26T14:19:59;10.00;99.90
11532;DHT22;5822;51.000;5.874;2024-02-26T14:22:25;9.90;99.90
11532;DHT22;5822;51.000;5.874;2024-02-26T14:24:52;10.00;99.90
11532;DHT22;5822;51.000;5.874;2024-02-26T14:27:18;10.00;99.90
11532;DHT22;5822;51.000;5.874;2024-02-26T14:29:46;10.00;99.90
11532;DHT22;5822;51.000;5.874;2024-02-26T14:32:12;10.00;99.90
11532;DHT22;5822;51.000;5.874;2024-02-26T14:34:37;10.10;99.90
11532;DHT22;5822;51.000;5.874;2024-02-26T14:37:03;10.10;99.90
11532;DHT22;5822;51.000;5.874;2024-02-26T14:39:30;10.10;99.90
11532;DHT22;5822;51.000;5.874;2024-02-26T14:41:57;10.00;99.90
11532;DHT22;5822;51.000;5.874;2024-02-26T14:44:23;10.00;99.90
11532;DHT22;5822;51.000;5.874;2024-02-26T14:46:49;10.00;99.90
11532;DHT22;5822;51.000;5.874;2024-02-26T14:49:15;9.90;99.90
11532;DHT22;5822;51.000;5.874;2024-02-26T14:51:41;10.00;99.90
11532;DHT22;5822;51.000;5.874;2024-02-26T14:54:07;10.00;99.90
11532;DHT22;5822;51.000;5.874;2024-02-26T14:56:33;10.10;99.90
11532;DHT22;5822;51.000;5.874;2024-02-26T14:58:58;10.10;99.90
11532;DHT22;5822;51.000;5.874;2024-02-26T15:01:24;10.10;99.90
11532;DHT22;5822;51.000;5.874;2024-02-26T15:03:50;10.10;99.90
11532;DHT22;5822;51.000;5.874;2024-02-26T15:06:15;10.00;99.90
11532;DHT22;5822;51.000;5.874;2024-02-26T15:08:41;10.00;99.90
11532;DHT22;5822;51.000;5.874;2024-02-26T15:11:07;10.00;99.90
11532;DHT22;5822;51.000;5.874;2024-02-26T15:13:33;10.00;99.90
11532;DHT22;5822;51.000;5.874;2024-02-26T15:15:59;10.00;99.90
11532;DHT22;5822;51.000;5.874;2024-02-26T15:18:25;10.00;99.90
11532;DHT22;5822;51.000;5.874;2024-02-26T15:20:51;10.10;99.90
11532;DHT22;5822;51.000;5.874;2024-02-26T15:23:16;10.10;99.90
11532;DHT22;5822;51.000;5.874;2024-02-26T15:25:43;10.10;99.90
11532;DHT22;5822;51.000;5.874;2024-02-26T15:28:09;10.00;99.90
11532;DHT22;5822;51.000;5.874;2024-02-26T15:30:39;9.90;99.90
11532;DHT22;5822;51.000;5.874;2024-02-26T15:33:05;10.00;99.90
11532;DHT22;5822;51.000;5.874;2024-02-26T15:35:30;10.00;99.90
11532;DHT22;5822;51.000;5.874;2024-02-26T15:37:56;9.90;99.90
11532;DHT22;5822;51.000;5.874;2024-02-26T15:40:24;9.90;99.90
11532;DHT22;5822;51.000;5.874;2024-02-26T15:42:50;9.90;99.90
11532;DHT22;5822;51.000;5.874;2024-02-26T15:45:16;9.90;99.90
11532;DHT22;5822;51.000;5.874;2024-02-26T15:47:42;10.00;99.90
11532;DHT22;5822;51.000;5.874;2024-02-26T15:50:08;10.00;99.90
11532;DHT22;5822;51.000;5.874;2024-02-26T15:52:36;9.90;99.90
11532;DHT22;5822;51.000;5.874;2024-02-26T15:55:01;9.90;99.90